Aeroporto :
LOGIN :

Iscrizione | Disclaimer

   EN    FR    IT 

 










Sommario :    VFR   VFR Marginale   IFR   IFR Intensivo   IFR Molto Intensivo
Visibilità : 
Base nubi : 
>= 8 km
>= 3000ft
5 / 8 km
1000 / 3000 ft
1500m / 5 km
500 / 1000 ft
800 / 1500m
200 / 500 ft
< 800m
< 200 ft
Simboli :   Temporali  Nebbia  Neve Forte  Precipitazioni Forti  Vento > 20 kt
SIGMETs :   Varie  Temporali  Ghiacco  Turbolenza  Onda orograficha  Ceneri Vulcaniche






- Altitudine del aeroporto : 45 ft


LIQW - Luni - Sarzana Genoa

METARs OBSOLETI :
  • 140955Z 22009KT 9999 BKN025 20/17 Q1019 RMK BKN VIS MIN 9999 WIND THR14 /////KT BLU
  • 140855Z 21009KT 9999 SCT025 19/15 Q1019 RMK BKN VIS MIN 9999 WIND THR14 /////KT BLU
  • 140755Z 22004KT 9999 SCT020 SCT025 18/17 Q1018 RMK BKN VIS MIN 9999 WIND THR14 /////KT BLU
  • 140655Z 24002KT 9999 SCT020 SCT025 17/16 Q1018

TAF TAF LIQW
Valido dal 14 a 09 ore il 14 a 18 ore UTC


140800Z 1409/1418 23010KT 9999 BKN020
TEMPO 1409/1410 7000 RA



MetMap, La meteo Aeronautica in un colpo d'occhio ! - Copyright ORBIFLY Dicembre 2007 - Disclaimer

ORBIFLY MET'MAP TEAM :

Programmazione e sviluppo : Alexandra Zaïnal
Concezione : Baudouin d'Aumeries
Supporto tecnico e logistico : Manuel Goepfert
Aiuto : Marc-Olivier Méhu
Aiuto per la traduzione : Arnaldo La Scala




FONTI E CREDITI :

   NOAA